Time;durP1;ratioP1;P1;durP2;ratioP2;P2;SDS_P1;SDS_P2;PMS_P1;PMS_P2;Temp;Humidity;BMP_temperature;BMP_pressure;BME280_temperature;BME280_humidity;BME280_pressure;Samples;Min_cycle;Max_cycle;Signal;HPM_P1;HPM_P2
2021/11/25 00:01:20;;;;;;;30.00;19.75;;;4.60;75.10;;;3.67;61.12;94636.19;4940093;28;20195;-81
2021/11/25 00:03:48;;;;;;;30.40;20.10;;;4.60;75.10;;;3.64;61.23;94626.97;4939126;28;20219;-83
2021/11/25 00:06:15;;;;;;;31.65;20.77;;;4.60;75.10;;;3.58;61.46;94622.41;4940595;28;20218;-82
2021/11/25 00:08:42;;;;;;;28.40;19.75;;;4.60;75.00;;;3.60;61.30;94627.41;4940310;28;20238;-82
2021/11/25 00:11:10;;;;;;;29.83;19.05;;;4.60;75.00;;;3.58;61.41;94630.19;4940135;28;20207;-82
2021/11/25 00:13:37;;;;;;;31.30;19.10;;;4.50;75.00;;;3.57;61.28;94620.75;4924802;28;20313;-82
2021/11/25 00:16:04;;;;;;;27.63;19.25;;;4.50;75.00;;;3.53;61.25;94612.47;4940177;28;20241;-82
2021/11/25 00:18:37;;;;;;;29.10;19.35;;;4.60;75.10;;;3.56;61.31;94615.75;4941122;28;20222;-82
2021/11/25 00:21:05;;;;;;;29.95;19.95;;;4.50;75.00;;;3.53;61.23;94606.50;4939549;28;20195;-82
2021/11/25 00:23:32;;;;;;;29.10;19.05;;;4.50;75.00;;;3.50;61.16;94612.81;4940185;28;20294;-82
2021/11/25 00:25:59;;;;;;;30.70;18.65;;;4.50;75.00;;;3.50;61.37;94609.38;4941353;28;20206;-82
2021/11/25 00:28:26;;;;;;;29.67;19.58;;;4.40;74.90;;;3.43;61.00;94603.19;4928265;28;20622;-82
2021/11/25 00:30:54;;;;;;;28.73;18.95;;;4.40;74.90;;;3.43;61.04;94604.03;4943469;28;20198;-81
2021/11/25 00:33:21;;;;;;;28.98;19.48;;;4.40;74.80;;;3.40;61.02;94603.53;4942914;28;20209;-82
2021/11/25 00:35:48;;;;;;;27.90;18.05;;;4.40;74.80;;;3.36;61.27;94601.22;4943739;28;20696;-81
2021/11/25 00:38:15;;;;;;;28.23;19.52;;;4.40;74.80;;;3.33;61.18;94598.13;4924640;28;20602;-82
2021/11/25 00:40:43;;;;;;;30.50;19.60;;;4.30;74.70;;;3.30;60.94;94598.44;4924536;28;20222;-81
2021/11/25 00:43:10;;;;;;;27.90;19.58;;;4.30;74.70;;;3.27;61.21;94585.78;4959864;28;20234;-82
2021/11/25 00:45:38;;;;;;;30.63;19.83;;;4.30;74.80;;;3.25;61.36;94593.72;4943277;28;20227;-82
2021/11/25 00:48:05;;;;;;;30.60;19.55;;;4.30;74.80;;;3.18;61.32;94579.75;4943217;28;20645;-82
2021/11/25 00:50:33;;;;;;;29.02;18.83;;;4.20;74.80;;;3.22;61.10;94586.25;4943484;28;20222;-82
2021/11/25 00:53:00;;;;;;;27.73;18.90;;;4.20;74.90;;;3.22;61.35;94588.03;4923628;29;20733;-82
2021/11/25 00:55:27;;;;;;;30.48;20.35;;;4.20;74.90;;;3.12;61.22;94576.00;4955773;29;20291;-82
2021/11/25 00:57:54;;;;;;;30.90;19.20;;;4.20;75.00;;;3.16;61.26;94568.72;4955771;29;20228;-82
2021/11/25 01:00:23;;;;;;;28.92;19.02;;;4.10;75.00;;;3.16;61.42;94566.13;4962497;28;20210;-82
2021/11/25 01:02:51;;;;;;;26.20;17.58;;;4.20;75.00;;;3.13;61.56;94572.44;4943157;28;20230;-82
2021/11/25 01:05:19;;;;;;;29.65;17.75;;;4.10;75.00;;;3.12;61.42;94565.63;4943222;28;20218;-82
2021/11/25 01:07:46;;;;;;;28.48;18.38;;;4.10;75.00;;;3.11;61.18;94558.81;4943076;28;20222;-82
2021/11/25 01:10:20;;;;;;;28.67;18.52;;;4.10;75.00;;;3.15;61.35;94562.75;4942227;28;20226;-82
2021/11/25 01:12:50;;;;;;;25.90;17.88;;;4.10;75.00;;;3.15;61.31;94559.31;4943444;28;20206;-82
2021/11/25 01:15:28;;;;;;;28.48;18.50;;;4.10;75.10;;;3.15;61.56;94556.72;4942558;28;20258;-82
2021/11/25 01:18:14;;;;;;;27.40;18.13;;;4.10;75.10;;;3.14;61.47;94549.94;4944227;28;20195;-82
2021/11/25 01:20:45;;;;;;;28.17;19.05;;;4.10;75.30;;;3.16;61.55;94555.78;4942382;28;20638;-81
2021/11/25 01:23:17;;;;;;;27.20;18.33;;;4.10;75.20;;;3.16;61.32;94555.78;4941447;28;20277;-82
2021/11/25 01:25:45;;;;;;;31.00;19.00;;;4.10;75.20;;;3.14;61.62;94550.75;4942406;28;20226;-82
2021/11/25 01:28:12;;;;;;;29.02;19.73;;;4.10;75.10;;;3.12;61.22;94542.31;4941717;28;20231;-82
2021/11/25 01:30:50;;;;;;;28.80;19.77;;;4.10;75.10;;;3.11;61.27;94532.09;4942715;28;20209;-81
2021/11/25 01:33:19;;;;;;;29.92;19.25;;;4.10;75.10;;;3.10;61.33;94528.72;4947932;28;20198;-82
2021/11/25 01:35:47;;;;;;;32.55;20.52;;;4.10;75.00;;;3.07;61.32;94526.41;4942693;28;20218;-82
2021/11/25 01:38:16;;;;;;;29.67;19.73;;;4.10;75.00;;;3.06;61.30;94534.34;4974309;28;20218;-82
2021/11/25 01:40:47;;;;;;;30.48;19.73;;;4.00;75.00;;;2.97;61.17;94520.56;4958316;28;20199;-81
2021/11/25 01:43:20;;;;;;;29.55;19.48;;;4.00;75.00;;;3.01;61.31;94532.22;4958285;28;20238;-81
2021/11/25 01:45:50;;;;;;;29.98;19.40;;;4.00;75.00;;;3.01;61.44;94532.22;4935030;28;20298;-82
2021/11/25 01:48:18;;;;;;;27.58;18.40;;;4.00;75.00;;;3.00;61.34;94528.00;4942197;28;20203;-84
2021/11/25 01:50:49;;;;;;;28.70;18.27;;;3.90;75.00;;;3.00;61.28;94528.84;4942256;28;20211;-81
2021/11/25 01:53:18;;;;;;;27.13;18.70;;;4.10;75.00;;;2.99;61.32;94523.78;4942785;28;20641;-82
2021/11/25 01:55:46;;;;;;;30.10;19.88;;;4.00;75.00;;;2.97;61.41;94516.19;4942012;28;20202;-81
2021/11/25 01:58:13;;;;;;;31.30;20.35;;;3.90;75.00;;;2.93;61.21;94508.84;4941196;28;20214;-81
2021/11/25 02:00:49;;;;;;;34.45;21.23;;;3.90;75.00;;;2.92;61.42;94508.06;4941770;28;20214;-81
2021/11/25 02:03:17;;;;;;;31.45;20.10;;;3.90;75.00;;;2.91;61.91;94509.03;4941963;28;20191;-81
2021/11/25 02:05:45;;;;;;;29.75;19.85;;;3.90;75.00;;;2.91;61.45;94505.63;4941940;28;20649;-81
2021/11/25 02:08:12;;;;;;;28.83;19.58;;;3.90;75.00;;;2.87;61.15;94495.56;4957434;28;20206;-81
2021/11/25 02:10:50;;;;;;;29.30;20.08;;;3.80;74.90;;;2.81;61.63;94495.38;4941982;28;20664;-82
2021/11/25 02:13:18;;;;;;;30.13;19.42;;;3.90;75.00;;;2.85;61.67;94486.34;4945972;28;20195;-81
2021/11/25 02:15:47;;;;;;;29.55;19.15;;;3.80;75.00;;;2.83;61.14;94485.66;4940640;28;20254;-80
2021/11/25 02:18:17;;;;;;;31.30;19.63;;;3.80;75.00;;;2.75;61.22;94477.84;4939646;28;20614;-80
2021/11/25 02:20:52;;;;;;;30.52;19.55;;;3.80;74.90;;;2.76;61.19;94464.75;4939560;28;20449;-81
2021/11/25 02:23:20;;;;;;;30.58;18.40;;;3.90;75.00;;;2.74;61.31;94476.25;4955606;28;20182;-81
2021/11/25 02:25:48;;;;;;;28.55;18.60;;;3.80;74.90;;;2.75;61.23;94465.72;4939360;28;20641;-81
2021/11/25 02:28:21;;;;;;;33.25;19.48;;;3.70;74.90;;;2.74;61.18;94466.69;4920285;28;20218;-81
2021/11/25 02:30:49;;;;;;;29.92;20.13;;;3.80;75.40;;;2.66;61.36;94439.00;4936402;29;20796;-81
2021/11/25 02:33:17;;;;;;;28.60;19.35;;;3.70;74.90;;;2.70;61.70;94452.44;4953771;28;20209;-81
2021/11/25 02:35:46;;;;;;;30.48;19.33;;;3.70;75.00;;;2.67;61.40;94444.97;4945033;28;20199;-81
2021/11/25 02:38:14;;;;;;;32.72;20.75;;;3.70;75.70;;;2.64;61.55;94438.31;4938278;28;20511;-82
2021/11/25 02:40:49;;;;;;;31.52;20.20;;;3.70;75.00;;;2.65;61.39;94447.72;4936159;28;20196;-82
2021/11/25 02:43:20;;;;;;;27.92;18.65;;;3.60;74.90;;;2.64;61.70;94447.88;4933732;28;20178;-82
2021/11/25 02:45:52;;;;;;;28.88;18.92;;;3.60;74.90;;;2.62;61.41;94448.00;4938135;28;20199;-81
2021/11/25 02:48:25;;;;;;;31.17;19.60;;;3.60;75.00;;;2.63;61.39;94434.09;4953795;28;20199;-81
2021/11/25 02:50:55;;;;;;;29.63;19.52;;;3.60;75.00;;;2.60;61.36;94429.25;4938328;28;20614;-81
2021/11/25 02:53:28;;;;;;;28.75;19.05;;;3.60;75.00;;;2.59;60.90;94432.81;4943397;28;20191;-81
2021/11/25 02:55:59;;;;;;;30.48;19.90;;;3.60;75.00;;;2.59;61.38;94437.16;4935010;28;20202;-82
2021/11/25 02:58:27;;;;;;;35.33;21.40;;;3.60;75.00;;;2.59;61.57;94429.38;4954760;28;20209;-81
2021/11/25 03:01:00;;;;;;;32.92;21.98;;;3.60;75.00;;;2.56;61.47;94427.91;4928921;28;20245;-81
2021/11/25 03:03:28;;;;;;;32.80;20.77;;;3.60;75.00;;;2.55;61.46;94432.28;4942498;28;20561;-81
2021/11/25 03:05:55;;;;;;;35.75;22.02;;;3.50;74.90;;;2.54;61.42;94419.50;4945713;28;20198;-81
2021/11/25 03:08:22;;;;;;;34.10;21.13;;;3.60;75.00;;;2.54;61.51;94424.69;4932599;28;20253;-80
2021/11/25 03:10:57;;;;;;;35.67;21.55;;;3.50;75.00;;;2.49;61.62;94426.91;4940023;28;20650;-81
2021/11/25 03:13:26;;;;;;;37.15;22.35;;;3.50;75.80;;;2.50;61.26;94426.78;4947910;28;20190;-81
2021/11/25 03:15:54;;;;;;;35.45;22.25;;;3.50;75.00;;;2.49;61.92;94414.78;4947931;28;20199;-80
2021/11/25 03:18:22;;;;;;;36.40;23.05;;;3.50;75.00;;;2.43;61.57;94394.72;4945151;28;20195;-81
2021/11/25 03:20:53;;;;;;;36.05;23.92;;;3.50;75.00;;;2.38;61.51;94402.09;4934916;28;20362;-81
2021/11/25 03:23:24;;;;;;;35.33;22.83;;;3.50;75.00;;;2.36;61.47;94402.25;4936606;28;20206;-80
2021/11/25 03:25:53;;;;;;;32.53;21.90;;;3.40;74.90;;;2.34;61.46;94403.38;4931897;28;20289;-80
2021/11/25 03:28:21;;;;;;;36.17;22.02;;;3.40;74.90;;;2.35;61.61;94407.59;4943900;28;20654;-80
2021/11/25 03:30:54;;;;;;;37.70;22.13;;;3.40;74.90;;;2.33;61.47;94415.53;4956212;28;20199;-80
2021/11/25 03:33:26;;;;;;;35.22;21.30;;;3.40;75.00;;;2.31;61.51;94407.09;4937618;28;20187;-80
2021/11/25 03:35:56;;;;;;;33.30;20.98;;;3.40;75.00;;;2.30;61.55;94409.84;4937172;28;20265;-80
2021/11/25 03:38:24;;;;;;;34.80;21.27;;;3.30;75.00;;;2.30;61.32;94417.59;4939590;28;20195;-82
2021/11/25 03:40:52;;;;;;;31.92;20.73;;;3.30;75.00;;;2.24;61.61;94406.06;4939205;28;20684;-81
2021/11/25 03:43:20;;;;;;;34.22;21.70;;;3.40;75.00;;;2.27;61.54;94415.31;4940072;28;20202;-81
2021/11/25 03:45:48;;;;;;;33.00;20.30;;;3.30;75.00;;;2.25;61.73;94410.28;4942320;28;20257;-80
2021/11/25 03:48:15;;;;;;;31.88;20.20;;;3.30;75.00;;;2.25;61.62;94399.94;4939234;28;20301;-82
2021/11/25 03:50:43;;;;;;;32.20;20.05;;;3.30;75.00;;;2.26;61.65;94398.16;4934684;28;20455;-81
2021/11/25 03:53:10;;;;;;;34.20;21.08;;;3.30;75.00;;;2.23;61.34;94404.44;4936448;28;20203;-81
2021/11/25 03:55:38;;;;;;;40.30;22.25;;;3.30;75.00;;;2.22;61.49;94403.66;4938936;28;20238;-81
2021/11/25 03:58:05;;;;;;;34.60;21.85;;;3.30;75.00;;;2.21;61.67;94398.59;4921015;28;20211;-81
2021/11/25 04:00:33;;;;;;;35.53;21.65;;;3.20;74.90;;;2.19;61.61;94393.59;4952700;28;20219;-81
2021/11/25 04:03:02;;;;;;;37.13;22.27;;;3.30;75.00;;;2.22;61.66;94398.47;4938464;28;20199;-82
2021/11/25 04:05:30;;;;;;;36.97;21.90;;;3.20;75.00;;;2.21;61.95;94396.84;4940432;28;20223;-81
2021/11/25 04:07:59;;;;;;;37.92;23.45;;;3.20;75.00;;;2.20;61.47;94392.63;4946792;28;20195;-81
2021/11/25 04:10:27;;;;;;;40.20;24.63;;;3.20;75.00;;;2.21;61.64;94404.63;4934066;28;20317;-81
2021/11/25 04:12:54;;;;;;;38.95;22.88;;;3.20;75.00;;;2.19;61.71;94397.97;4935598;28;20242;-82
2021/11/25 04:15:22;;;;;;;34.65;21.65;;;3.20;75.10;;;2.22;61.78;94411.41;4935909;28;20276;-81
2021/11/25 04:17:49;;;;;;;37.38;22.02;;;3.20;75.10;;;2.24;61.66;94400.91;4932666;28;20286;-81
2021/11/25 04:20:17;;;;;;;37.28;21.52;;;3.20;75.20;;;2.25;61.61;94394.78;4935437;28;20219;-82
2021/11/25 04:22:45;;;;;;;36.47;22.35;;;3.20;75.20;;;2.27;61.54;94395.44;4942126;28;20593;-81
2021/11/25 04:25:13;;;;;;;35.22;22.05;;;3.20;75.20;;;2.28;61.63;94386.69;4942229;28;20239;-82
2021/11/25 04:27:42;;;;;;;37.97;22.98;;;3.20;75.20;;;2.28;61.37;94396.22;4941707;28;20653;-82
2021/11/25 04:35:34;;;;;;;41.35;23.23;;;3.30;75.10;;;2.19;61.51;94388.41;4941614;29;20282;-81
2021/11/25 04:38:21;;;;;;;39.40;23.60;;;3.20;75.10;;;2.14;61.64;94382.91;4938473;29;20491;-81
2021/11/25 04:40:57;;;;;;;39.97;22.98;;;3.20;75.20;;;2.16;61.62;94391.31;4954069;29;20199;-82
2021/11/25 04:43:26;;;;;;;36.92;23.02;;;3.20;76.00;;;2.21;62.07;94393.44;4950029;28;20657;-81
2021/11/25 04:45:55;;;;;;;42.65;24.67;;;3.20;75.10;;;2.20;61.76;94390.03;4941498;28;20776;-81
2021/11/25 04:48:25;;;;;;;39.38;22.48;;;3.20;75.20;;;2.21;61.64;94385.66;4941278;28;20201;-81
2021/11/25 04:50:53;;;;;;;43.38;25.27;;;3.20;75.20;;;2.21;61.77;94394.25;4957051;28;20201;-82
2021/11/25 04:53:20;;;;;;;40.85;24.48;;;3.20;75.20;;;2.22;62.00;94395.06;4957279;28;20295;-81
2021/11/25 04:55:48;;;;;;;42.60;25.67;;;3.20;75.20;;;2.22;61.63;94392.47;4941205;28;20220;-81
2021/11/25 04:58:15;;;;;;;43.30;25.90;;;3.20;75.20;;;2.21;61.74;94380.50;4942590;28;20222;-82
2021/11/25 05:00:43;;;;;;;44.35;25.48;;;3.20;75.20;;;2.16;61.91;94372.38;4940702;28;20318;-81
2021/11/25 05:03:11;;;;;;;38.88;24.45;;;3.20;75.30;;;2.20;61.91;94379.69;4940472;28;20260;-81
2021/11/25 05:05:39;;;;;;;41.72;24.45;;;3.20;75.30;;;2.15;62.03;94371.59;4941044;28;20617;-81
2021/11/25 05:08:07;;;;;;;41.28;24.95;;;3.20;75.30;;;2.20;62.04;94369.34;4940789;28;20209;-81
2021/11/25 05:10:35;;;;;;;39.58;24.10;;;3.20;75.30;;;2.21;61.87;94370.16;4937406;28;20223;-80
2021/11/25 05:13:03;;;;;;;42.13;25.13;;;3.20;75.30;;;2.20;61.74;94366.75;4920954;29;20204;-80
2021/11/25 05:15:31;;;;;;;36.08;23.02;;;3.20;75.30;;;2.21;61.72;94364.97;4953531;29;20233;-81
2021/11/25 05:17:58;;;;;;;36.33;21.67;;;3.20;75.30;;;2.22;61.83;94369.19;4937660;29;20735;-81
2021/11/25 05:20:26;;;;;;;41.03;23.95;;;3.20;75.30;;;2.20;61.93;94365.97;4958053;28;20210;-81
2021/11/25 05:22:53;;;;;;;39.38;23.13;;;3.20;75.40;;;2.20;61.78;94358.19;4942565;28;20616;-81
2021/11/25 05:25:22;;;;;;;41.30;25.85;;;3.20;75.40;;;2.21;62.00;94372.72;4942649;28;20218;-81
2021/11/25 05:27:50;;;;;;;45.00;27.10;;;3.20;75.40;;;2.21;61.54;94373.56;4958721;28;20213;-82
2021/11/25 05:30:18;;;;;;;42.55;26.70;;;3.20;75.30;;;2.18;61.84;94360.91;4941596;28;20645;-80
2021/11/25 05:32:46;;;;;;;43.63;25.70;;;3.20;75.40;;;2.17;61.65;94355.91;4942173;28;20203;-81
2021/11/25 05:35:15;;;;;;;42.00;25.73;;;3.30;75.30;;;2.16;61.67;94351.69;4942068;28;20217;-80
2021/11/25 05:37:43;;;;;;;42.80;26.65;;;3.20;75.30;;;2.15;62.02;94350.91;4941903;28;20218;-81
2021/11/25 05:40:13;;;;;;;42.60;25.23;;;3.20;75.30;;;2.15;62.17;94358.66;4941686;28;20626;-81
2021/11/25 05:42:41;;;;;;;43.50;25.77;;;3.10;75.30;;;2.11;61.79;94335.81;4941967;28;20218;-81
2021/11/25 05:45:12;;;;;;;43.25;25.45;;;3.10;75.30;;;2.14;61.73;94346.69;4926420;28;20733;-81
2021/11/25 05:47:40;;;;;;;46.70;28.88;;;3.10;75.20;;;2.12;62.00;94340.03;4926481;28;20211;-81
2021/11/25 05:50:13;;;;;;;48.65;29.95;;;3.20;75.30;;;2.07;61.77;94324.97;4958092;28;20226;-81
2021/11/25 05:52:40;;;;;;;46.10;28.35;;;3.10;75.30;;;2.10;62.23;94336.78;4957992;28;20190;-80
2021/11/25 05:55:08;;;;;;;47.63;28.38;;;3.20;75.30;;;2.04;62.23;94333.84;4958163;28;20222;-80
2021/11/25 05:57:36;;;;;;;43.25;26.65;;;3.10;75.20;;;2.05;62.12;94332.91;4941922;28;20324;-80
2021/11/25 06:00:11;;;;;;;45.03;27.38;;;3.10;75.30;;;2.05;62.03;94327.72;4941103;28;20238;-81
2021/11/25 06:02:40;;;;;;;42.22;26.85;;;3.10;75.40;;;2.03;61.96;94332.22;4942385;28;20194;-80
2021/11/25 06:05:09;;;;;;;48.28;26.92;;;3.10;75.30;;;2.03;62.16;94336.59;4941801;28;20258;-80
2021/11/25 06:07:36;;;;;;;44.25;26.60;;;3.10;75.30;;;1.98;61.93;94323.31;4941861;28;20199;-80
2021/11/25 06:10:04;;;;;;;43.15;26.08;;;3.00;75.30;;;2.02;62.05;94328.00;4941470;28;20624;-80
2021/11/25 06:12:31;;;;;;;47.60;24.95;;;3.00;75.40;;;2.03;61.88;94332.22;4941749;28;20257;-81
2021/11/25 06:14:58;;;;;;;41.58;24.25;;;3.00;75.40;;;2.03;62.14;94327.06;4941571;28;20318;-80
2021/11/25 06:17:26;;;;;;;40.72;24.00;;;3.00;75.40;;;2.06;61.88;94334.53;4941359;28;20605;-80
2021/11/25 06:19:55;;;;;;;44.15;25.10;;;3.00;75.40;;;2.08;62.12;94335.16;4956647;28;20246;-80
2021/11/25 06:22:23;;;;;;;44.30;25.58;;;3.00;75.40;;;2.08;62.02;94329.19;4941395;28;20207;-79
2021/11/25 06:24:51;;;;;;;43.65;24.67;;;3.00;75.50;;;2.08;62.44;94326.59;4939764;28;20230;-80
2021/11/25 06:27:18;;;;;;;41.28;24.02;;;3.00;75.40;;;2.10;62.11;94324.69;4955199;28;20202;-81
2021/11/25 06:29:45;;;;;;;43.08;24.83;;;3.00;75.50;;;2.09;62.01;94323.06;4939342;28;20823;-80
2021/11/25 06:32:13;;;;;;;41.58;25.48;;;3.10;75.50;;;2.10;62.10;94316.91;4940274;28;20645;-81
2021/11/25 06:34:40;;;;;;;41.72;24.52;;;3.00;75.40;;;2.07;61.90;94314.63;4941071;28;20329;-81
2021/11/25 06:37:07;;;;;;;41.47;24.35;;;3.10;75.50;;;2.10;62.01;94322.09;4941119;28;20410;-81
2021/11/25 06:39:34;;;;;;;48.83;28.08;;;3.10;75.40;;;2.07;62.23;94324.97;4940116;28;20766;-81
2021/11/25 06:42:02;;;;;;;51.13;28.92;;;3.10;75.50;;;2.04;62.23;94320.94;4940403;28;20190;-81
2021/11/25 06:44:29;;;;;;;47.10;26.73;;;3.10;75.40;;;2.04;62.10;94317.53;4940137;28;20214;-80
2021/11/25 06:46:56;;;;;;;48.53;27.98;;;3.10;75.40;;;2.04;62.58;94322.72;4940872;28;20602;-81
2021/11/25 06:49:23;;;;;;;51.40;27.92;;;3.00;75.40;;;2.04;62.50;94320.13;4941143;28;20715;-79
2021/11/25 06:51:50;;;;;;;48.05;25.10;;;3.10;75.50;;;2.05;62.09;94308.78;4941049;28;20202;-79
2021/11/25 06:54:18;;;;;;;44.33;24.63;;;3.00;75.50;;;2.06;62.42;94307.84;4940465;28;20587;-79
2021/11/25 06:56:45;;;;;;;44.50;25.83;;;3.10;75.60;;;2.07;62.30;94304.28;4940980;28;20289;-79
2021/11/25 06:59:13;;;;;;;45.55;25.45;;;3.00;75.60;;;2.06;62.34;94298.31;4940787;28;20788;-80
2021/11/25 07:01:40;;;;;;;44.78;25.23;;;3.10;75.70;;;2.14;62.12;94299.31;4925430;28;20645;-81
2021/11/25 07:04:07;;;;;;;39.90;24.15;;;3.00;75.70;;;2.12;62.25;94298.66;4941279;28;20317;-80
2021/11/25 07:06:34;;;;;;;44.13;25.27;;;3.10;75.70;;;2.16;62.33;94303.38;4940587;28;20262;-80
2021/11/25 07:09:02;;;;;;;39.10;23.20;;;3.10;75.80;;;2.19;61.95;94304.84;4930869;28;20301;-81
2021/11/25 07:11:29;;;;;;;40.88;24.25;;;3.10;75.80;;;2.18;62.20;94296.25;4932374;28;20221;-81
2021/11/25 07:13:57;;;;;;;43.03;23.67;;;3.10;75.80;;;2.19;62.09;94297.06;4931352;28;20214;-82
2021/11/25 07:16:24;;;;;;;42.72;25.40;;;3.10;75.80;;;2.27;62.26;94312.63;4947736;28;20218;-81
2021/11/25 07:18:51;;;;;;;41.08;23.65;;;3.20;75.90;;;2.32;62.24;94314.72;4929795;28;20652;-81
2021/11/25 07:21:18;;;;;;;40.97;23.58;;;3.20;75.80;;;2.36;62.33;94313.47;4931860;28;20290;-81
2021/11/25 07:23:46;;;;;;;43.33;24.70;;;3.20;75.90;;;2.39;62.36;94302.78;4949503;28;20593;-81
2021/11/25 07:26:13;;;;;;;41.63;25.25;;;3.20;75.90;;;2.39;62.08;94298.44;4939527;28;20258;-81
2021/11/25 07:28:40;;;;;;;45.28;26.52;;;3.30;75.90;;;2.43;62.45;94290.34;4937753;28;20739;-82
2021/11/25 07:31:09;;;;;;;42.55;25.00;;;3.30;75.90;;;2.46;61.95;94300.41;4922776;28;20226;-81
2021/11/25 07:33:36;;;;;;;40.38;24.10;;;3.30;75.80;;;2.51;62.27;94311.09;4940953;28;20289;-81
2021/11/25 07:36:04;;;;;;;40.60;24.02;;;3.40;75.90;;;2.53;61.97;94302.19;4945987;28;20309;-81
2021/11/25 07:38:32;;;;;;;41.28;23.30;;;3.40;75.90;;;2.56;62.11;94288.13;4946007;28;20218;-81
2021/11/25 07:41:00;;;;;;;39.95;23.45;;;3.40;75.90;;;2.60;61.94;94293.78;4942225;28;20207;-81
2021/11/25 07:43:28;;;;;;;41.90;24.67;;;3.40;75.90;;;2.56;62.32;94285.53;4942202;28;20242;-81
2021/11/25 07:45:57;;;;;;;39.65;23.70;;;3.40;75.90;;;2.65;61.92;94302.72;4944679;28;20203;-80
2021/11/25 07:48:24;;;;;;;40.28;24.55;;;3.50;76.70;;;2.68;62.14;94299.81;4945882;28;20294;-81
2021/11/25 07:50:51;;;;;;;42.47;25.20;;;3.50;75.80;;;2.70;62.07;94304.84;4961527;28;20206;-81
2021/11/25 07:53:18;;;;;;;42.15;26.15;;;3.50;76.70;;;2.70;62.08;94299.66;4946177;28;20316;-81
2021/11/25 07:55:46;;;;;;;42.60;24.92;;;3.60;75.90;;;2.71;62.14;94293.50;4927825;29;20717;-81
2021/11/25 07:58:13;;;;;;;37.88;23.20;;;3.60;75.80;;;2.70;62.43;94291.91;4927826;29;20695;-81
2021/11/25 08:00:43;;;;;;;42.78;24.35;;;3.60;75.80;;;2.76;61.91;94293.84;4927902;29;20262;-81
2021/11/25 08:03:10;;;;;;;38.88;24.05;;;3.60;75.90;;;2.75;62.09;94281.03;4930375;28;20206;-83
2021/11/25 08:05:38;;;;;;;41.67;23.92;;;3.60;75.90;;;2.80;62.05;94287.38;4946733;28;20215;-82
2021/11/25 08:08:08;;;;;;;39.60;24.10;;;3.60;75.80;;;2.85;62.27;94289.50;4962855;28;20448;-83
2021/11/25 08:10:37;;;;;;;42.65;24.30;;;3.70;75.90;;;2.87;61.98;94287.56;4959549;28;20290;-81
2021/11/25 08:13:04;;;;;;;41.13;24.95;;;3.70;75.80;;;2.87;61.78;94280.59;4945533;28;20202;-81
2021/11/25 08:15:33;;;;;;;44.45;24.88;;;3.70;75.80;;;2.90;62.03;94276.06;4943910;28;20214;-81
2021/11/25 08:18:01;;;;;;;42.88;26.02;;;3.70;75.70;;;2.91;61.88;94280.28;4959143;28;20245;-81
2021/11/25 08:20:28;;;;;;;43.72;26.30;;;3.80;75.80;;;2.87;62.26;94278.00;4944784;28;20234;-82
2021/11/25 08:22:56;;;;;;;42.85;25.27;;;3.80;75.70;;;2.90;62.02;94274.28;4927829;28;20273;-80
2021/11/25 08:25:24;;;;;;;41.38;25.35;;;3.80;75.70;;;2.92;62.02;94284.47;4942723;28;20310;-81
2021/11/25 08:27:57;;;;;;;38.08;23.48;;;3.80;75.70;;;2.94;62.00;94280.78;4944985;28;20720;-80
2021/11/25 08:30:26;;;;;;;42.38;24.55;;;3.80;75.70;;;2.95;62.11;94281.56;4947379;28;20738;-81
2021/11/25 08:32:54;;;;;;;43.63;26.10;;;3.80;75.80;;;2.97;61.77;94287.41;4943726;28;20230;-82
2021/11/25 08:35:21;;;;;;;38.58;24.63;;;3.80;75.70;;;3.00;61.80;94276.72;4943464;28;20237;-80
2021/11/25 08:37:50;;;;;;;38.03;23.52;;;3.80;75.80;;;3.03;61.91;94277.19;4945100;28;20269;-80
2021/11/25 08:40:17;;;;;;;39.17;23.33;;;3.80;75.80;;;3.06;62.08;94278.66;4937208;28;20238;-82
2021/11/25 08:42:47;;;;;;;39.03;23.90;;;3.90;75.90;;;3.08;61.82;94268.94;4940959;29;20226;-82
2021/11/25 08:45:16;;;;;;;44.63;25.10;;;4.00;75.90;;;3.10;62.10;94261.84;4958743;28;20246;-82
2021/11/25 08:47:44;;;;;;;44.08;26.02;;;3.90;75.90;;;3.12;62.04;94257.28;4955225;28;20290;-81
2021/11/25 08:50:16;;;;;;;45.42;26.92;;;3.90;75.80;;;3.16;61.75;94266.38;4941318;28;20241;-81
2021/11/25 08:52:43;;;;;;;42.97;26.10;;;3.90;75.80;;;3.20;62.32;94269.44;4941976;28;20289;-81
2021/11/25 08:55:12;;;;;;;41.97;24.67;;;4.00;75.80;;;3.21;61.95;94260.69;4957702;28;20229;-81
2021/11/25 08:57:39;;;;;;;39.78;24.00;;;4.00;75.90;;;3.28;62.00;94266.81;4926553;28;20564;-81
2021/11/25 09:00:10;;;;;;;38.65;24.02;;;4.00;75.90;;;3.32;61.78;94260.38;4959043;28;20648;-81
2021/11/25 09:02:39;;;;;;;41.40;24.48;;;4.10;76.00;;;3.38;61.92;94258.09;4941645;28;20677;-81
2021/11/25 09:05:09;;;;;;;41.47;25.30;;;4.10;76.00;;;3.38;61.97;94255.50;4927129;28;20245;-81
2021/11/25 09:07:39;;;;;;;42.38;25.10;;;4.10;76.00;;;3.43;61.66;94263.59;4923373;29;20196;-81
2021/11/25 09:10:08;;;;;;;39.53;25.10;;;4.20;75.90;;;3.45;61.94;94254.66;4940111;29;20242;-82
2021/11/25 09:12:35;;;;;;;38.97;24.10;;;4.20;75.90;;;3.48;61.69;94254.34;4939598;29;20203;-81
2021/11/25 09:15:17;;;;;;;40.35;25.10;;;4.20;75.90;;;3.51;61.75;94254.00;4927695;29;20720;-81
2021/11/25 09:17:45;;;;;;;40.95;24.48;;;4.30;75.90;;;3.52;62.12;94247.84;4942927;28;20201;-82
2021/11/25 09:20:25;;;;;;;38.30;23.73;;;4.30;75.90;;;3.62;61.73;94254.66;4944291;28;20262;-81
2021/11/25 09:22:53;;;;;;;38.58;22.83;;;4.40;76.00;;;3.62;61.81;94246.88;4958671;28;20598;-81
2021/11/25 09:25:20;;;;;;;42.90;24.48;;;4.40;75.90;;;3.69;61.66;94246.03;4942580;28;20744;-81
2021/11/25 09:27:48;;;;;;;38.78;23.33;;;4.40;76.00;;;3.68;61.76;94234.03;4941988;28;20199;-81
2021/11/25 09:30:16;;;;;;;41.85;25.13;;;4.40;76.80;;;3.79;61.70;94235.47;4942424;28;20214;-82
2021/11/25 09:32:43;;;;;;;40.55;24.92;;;4.50;76.00;;;3.81;61.43;94233.53;4942805;28;20190;-82
2021/11/25 09:35:16;;;;;;;43.40;25.60;;;4.50;75.90;;;3.86;61.71;94222.66;4943043;28;20589;-81
2021/11/25 09:37:43;;;;;;;38.92;24.70;;;4.60;76.00;;;3.91;61.46;94220.38;4942089;28;20218;-81
2021/11/25 09:40:20;;;;;;;37.85;23.35;;;4.60;75.90;;;3.99;61.43;94222.94;4942402;28;20705;-80
2021/11/25 09:43:03;;;;;;;41.60;24.83;;;4.70;76.00;;;4.04;61.79;94213.81;4907554;29;20188;-81
2021/11/25 09:45:34;;;;;;;45.55;27.75;;;4.80;76.00;;;4.08;61.43;94217.72;4908775;28;20226;-81
2021/11/25 09:48:06;;;;;;;45.75;27.10;;;4.80;75.90;;;4.10;61.21;94215.75;4937740;28;20286;-82
2021/11/25 09:50:39;;;;;;;45.63;28.02;;;4.80;75.80;;;4.13;61.05;94207.63;4968094;28;20308;-81
2021/11/25 09:53:09;;;;;;;49.97;29.45;;;4.80;75.80;;;4.10;60.98;94201.00;4950021;28;20198;-80
2021/11/25 09:55:38;;;;;;;43.38;26.67;;;4.90;75.60;;;4.11;61.05;94205.22;4933537;28;20227;-81
2021/11/25 09:58:05;;;;;;;39.13;24.33;;;4.90;75.60;;;4.18;61.05;94200.16;4938081;28;20285;-81
2021/11/25 10:00:33;;;;;;;42.65;26.42;;;4.90;75.60;;;4.25;60.98;94195.91;4939198;28;20207;-82
2021/11/25 10:03:02;;;;;;;39.60;24.77;;;4.90;75.80;;;4.29;61.43;94183.38;4956219;28;20207;-82
2021/11/25 10:05:30;;;;;;;41.00;25.50;;;4.90;75.80;;;4.41;61.36;94186.41;4940189;28;20246;-82
2021/11/25 10:07:57;;;;;;;45.95;28.08;;;5.00;76.00;;;4.44;61.03;94175.66;4928436;29;20253;-82
2021/11/25 10:10:31;;;;;;;43.60;27.50;;;5.00;75.90;;;4.46;60.95;94179.69;4936728;29;20278;-81
2021/11/25 10:13:14;;;;;;;43.65;26.77;;;5.10;75.60;;;4.46;60.51;94173.72;4921789;29;20213;-82
2021/11/25 10:15:42;;;;;;;43.97;26.95;;;5.10;75.40;;;4.47;60.78;94164.94;4930897;28;20657;-81
2021/11/25 10:18:13;;;;;;;42.88;26.58;;;5.20;75.50;;;4.51;61.09;94161.00;4935737;28;20301;-82
2021/11/25 10:20:44;;;;;;;42.38;26.02;;;5.20;75.50;;;4.54;60.87;94162.44;4941921;28;20208;-81
2021/11/25 10:23:28;;;;;;;42.05;26.08;;;5.20;75.50;;;4.56;60.87;94150.09;4943433;28;20195;-82
2021/11/25 10:25:59;;;;;;;41.72;26.98;;;5.20;75.50;;;4.55;60.78;94143.28;4923649;28;20250;-80
2021/11/25 10:28:55;;;;;;;40.97;26.02;;;5.30;75.60;;;4.62;61.00;94141.63;4954770;28;20226;-82
2021/11/25 10:31:33;;;;;;;43.08;26.17;;;5.30;75.40;;;4.67;61.23;94138.50;4934543;28;20207;-81
2021/11/25 10:34:22;;;;;;;40.70;26.10;;;5.30;75.50;;;4.69;60.89;94149.50;4924238;28;20309;-82